createdAt,value
2023-01-27T00:01:22.932Z,66.07
2023-01-27T00:03:52.415Z,65.87
2023-01-27T00:06:20.838Z,65.53
2023-01-27T00:08:50.597Z,65.74
2023-01-27T00:11:36.518Z,65.69
2023-01-27T00:14:04.952Z,65.42
2023-01-27T00:16:33.267Z,65.61
2023-01-27T00:19:01.571Z,65.34
2023-01-27T00:21:47.333Z,65.40
2023-01-27T00:24:34.544Z,65.68
2023-01-27T00:27:03.192Z,65.30
2023-01-27T00:29:31.561Z,65.32
2023-01-27T00:32:16.951Z,65.74
2023-01-27T00:34:45.299Z,65.57
2023-01-27T00:37:13.671Z,64.90
2023-01-27T00:39:43.762Z,65.30
2023-01-27T00:42:12.156Z,65.17
2023-01-27T00:45:00.405Z,65.57
2023-01-27T00:47:28.757Z,65.34
2023-01-27T00:49:57.065Z,65.30
2023-01-27T00:52:25.529Z,65.42
2023-01-27T00:54:55.349Z,65.63
2023-01-27T00:57:23.678Z,65.48
2023-01-27T00:59:52.127Z,65.75
2023-01-27T01:02:20.439Z,65.62
2023-01-27T01:04:48.812Z,65.29
2023-01-27T01:07:17.104Z,64.96
2023-01-27T01:09:45.745Z,64.87
2023-01-27T01:12:15.465Z,65.45
2023-01-27T01:14:43.845Z,65.60
2023-01-27T01:17:12.098Z,65.06
2023-01-27T01:19:40.487Z,65.69
2023-01-27T01:22:08.787Z,64.87
2023-01-27T01:24:37.113Z,65.49
2023-01-27T01:27:05.655Z,65.62
2023-01-27T01:29:35.608Z,65.33
2023-01-27T01:32:03.981Z,65.34
2023-01-27T01:34:32.226Z,65.56
2023-01-27T01:37:00.572Z,65.65
2023-01-27T01:39:29.422Z,65.45
2023-01-27T01:41:57.744Z,65.43
2023-01-27T01:44:28.027Z,65.40
2023-01-27T01:46:58.000Z,65.81
2023-01-27T01:49:31.038Z,65.68
2023-01-27T01:52:02.769Z,65.62
2023-01-27T01:54:35.393Z,65.57
2023-01-27T01:57:07.906Z,65.61
2023-01-27T01:59:40.372Z,65.53
2023-01-27T02:02:13.751Z,65.19
2023-01-27T02:04:46.947Z,65.64
2023-01-27T02:07:21.578Z,65.50
2023-01-27T02:09:50.196Z,65.42
2023-01-27T02:12:18.498Z,65.57
2023-01-27T02:14:46.895Z,65.55
2023-01-27T02:17:17.376Z,65.80
2023-01-27T02:19:55.068Z,65.83
2023-01-27T02:22:29.539Z,65.27
2023-01-27T02:25:06.533Z,65.25
2023-01-27T02:27:36.246Z,64.86
2023-01-27T02:30:04.630Z,65.69
2023-01-27T02:32:34.958Z,65.69
2023-01-27T02:35:03.938Z,65.37
2023-01-27T02:37:34.271Z,65.36
2023-01-27T02:40:04.433Z,65.32
2023-01-27T02:42:32.826Z,65.50
2023-01-27T02:45:02.567Z,65.17
2023-01-27T02:47:30.907Z,65.39
2023-01-27T02:49:59.463Z,65.36
2023-01-27T02:52:27.811Z,65.48
2023-01-27T02:54:56.144Z,65.40
2023-01-27T02:57:24.440Z,65.71
2023-01-27T02:59:52.899Z,65.66
2023-01-27T03:02:23.135Z,65.86
2023-01-27T03:04:51.577Z,65.70
2023-01-27T03:07:19.874Z,65.39
2023-01-27T03:09:48.157Z,65.54
2023-01-27T03:12:22.542Z,65.56
2023-01-27T03:15:10.056Z,66.10
2023-01-27T03:17:57.643Z,66.12
2023-01-27T03:20:26.236Z,65.89
2023-01-27T03:22:54.632Z,65.37
2023-01-27T03:25:23.174Z,65.45
2023-01-27T03:27:51.541Z,66.05
2023-01-27T03:30:20.196Z,66.19
2023-01-27T03:32:50.055Z,66.31
2023-01-27T03:35:18.951Z,66.29
2023-01-27T03:38:05.158Z,66.31
2023-01-27T03:40:50.763Z,66.47
2023-01-27T03:43:36.642Z,65.92
2023-01-27T03:46:20.617Z,66.07
2023-01-27T03:48:55.362Z,65.62
2023-01-27T03:51:26.129Z,65.64
2023-01-27T03:53:54.989Z,65.86
2023-01-27T03:56:24.256Z,66.21
2023-01-27T03:58:52.584Z,66.18
2023-01-27T04:01:22.659Z,66.09
2023-01-27T04:04:09.161Z,66.33
2023-01-27T04:06:54.505Z,66.35
2023-01-27T04:09:26.001Z,66.35
2023-01-27T04:11:56.589Z,66.46
2023-01-27T04:14:26.857Z,66.37
2023-01-27T04:16:57.304Z,66.54
2023-01-27T04:19:26.331Z,66.25
2023-01-27T04:21:56.582Z,66.25
2023-01-27T04:24:25.079Z,66.72
2023-01-27T04:26:56.114Z,67.17
2023-01-27T04:29:25.835Z,66.24
2023-01-27T04:31:54.620Z,66.45
2023-01-27T04:34:23.292Z,66.76
2023-01-27T04:36:52.413Z,66.78
2023-01-27T04:39:22.118Z,66.98
2023-01-27T04:41:51.374Z,67.28
2023-01-27T04:44:21.460Z,66.67
2023-01-27T04:46:50.415Z,66.92
2023-01-27T04:49:19.294Z,66.66
2023-01-27T04:51:47.728Z,66.24
2023-01-27T04:54:16.163Z,67.10
2023-01-27T04:56:59.574Z,67.03
2023-01-27T04:59:28.166Z,66.58
2023-01-27T05:01:56.709Z,66.88
2023-01-27T05:04:26.516Z,66.66
2023-01-27T05:06:55.301Z,66.78
2023-01-27T05:09:23.933Z,66.76
2023-01-27T05:11:53.661Z,66.78
2023-01-27T05:14:23.751Z,66.79
2023-01-27T05:16:52.463Z,66.99
2023-01-27T05:19:21.095Z,66.96
2023-01-27T05:21:49.463Z,66.75
2023-01-27T05:24:18.091Z,67.05
2023-01-27T05:26:46.542Z,67.27
2023-01-27T05:29:16.239Z,67.03
2023-01-27T05:31:44.588Z,66.75
2023-01-27T05:34:12.935Z,66.41
2023-01-27T05:36:41.263Z,66.66
2023-01-27T05:39:12.310Z,67.02
2023-01-27T05:41:40.747Z,66.81
2023-01-27T05:44:12.554Z,66.55
2023-01-27T05:46:43.605Z,66.95
2023-01-27T05:49:12.200Z,67.11
2023-01-27T05:51:41.266Z,67.11
2023-01-27T05:54:10.410Z,66.87
2023-01-27T05:56:39.337Z,66.82
2023-01-27T05:59:07.992Z,67.06
2023-01-27T06:01:37.695Z,66.78
2023-01-27T06:04:07.950Z,66.94
2023-01-27T06:06:36.325Z,66.65
2023-01-27T06:09:05.136Z,66.61
2023-01-27T06:11:33.556Z,66.34
2023-01-27T06:14:01.882Z,66.75
2023-01-27T06:16:30.358Z,66.36
2023-01-27T06:18:58.816Z,66.65
2023-01-27T06:21:28.634Z,66.95
2023-01-27T06:23:58.390Z,66.86
2023-01-27T06:26:26.827Z,66.78
2023-01-27T06:28:56.962Z,66.84
2023-01-27T06:31:26.110Z,66.98
2023-01-27T06:33:54.552Z,66.88
2023-01-27T06:36:23.561Z,65.97
2023-01-27T06:38:53.389Z,65.79
2023-01-27T06:41:21.750Z,65.80
2023-01-27T06:43:50.140Z,66.29
2023-01-27T06:46:18.539Z,66.89
2023-01-27T06:48:46.910Z,66.42
2023-01-27T06:51:15.691Z,65.65
2023-01-27T06:53:44.056Z,65.58
2023-01-27T06:56:15.679Z,65.94
2023-01-27T06:58:44.675Z,67.21
2023-01-27T07:01:13.184Z,66.78
2023-01-27T07:03:43.620Z,66.37
2023-01-27T07:06:13.003Z,66.45
2023-01-27T07:08:41.539Z,66.77
2023-01-27T07:11:09.909Z,67.44
2023-01-27T07:13:39.722Z,67.61
2023-01-27T07:16:08.752Z,67.28
2023-01-27T07:18:37.225Z,66.79
2023-01-27T07:21:06.327Z,66.78
2023-01-27T07:23:34.897Z,67.48
2023-01-27T07:26:09.877Z,67.26
2023-01-27T07:28:45.601Z,67.00
2023-01-27T07:31:14.142Z,66.94
2023-01-27T07:33:42.573Z,66.89
2023-01-27T07:36:11.519Z,67.53
2023-01-27T07:38:40.454Z,66.28
2023-01-27T07:41:09.204Z,65.65
2023-01-27T07:43:37.595Z,67.09
2023-01-27T07:46:07.359Z,67.33
2023-01-27T07:48:35.912Z,67.54
2023-01-27T07:51:04.405Z,67.37
2023-01-27T07:53:32.808Z,67.44
2023-01-27T07:56:01.605Z,67.18
2023-01-27T07:58:29.908Z,67.14
2023-01-27T08:00:58.301Z,67.35
2023-01-27T08:03:28.649Z,67.08
2023-01-27T08:05:56.982Z,66.90
2023-01-27T08:08:25.534Z,67.07
2023-01-27T08:10:54.889Z,66.66
2023-01-27T08:13:23.320Z,66.51
2023-01-27T08:15:57.344Z,66.62
2023-01-27T08:18:26.007Z,66.60
2023-01-27T08:20:56.493Z,66.40
2023-01-27T08:23:25.103Z,66.35
2023-01-27T08:25:54.439Z,66.95
2023-01-27T08:28:24.239Z,66.50
2023-01-27T08:30:53.361Z,66.88
2023-01-27T08:33:23.038Z,67.03
2023-01-27T08:35:51.955Z,65.87
2023-01-27T08:38:22.017Z,66.27
2023-01-27T08:40:50.530Z,66.54
2023-01-27T08:43:19.869Z,66.30
2023-01-27T08:45:48.479Z,66.17
2023-01-27T08:48:16.833Z,66.24
2023-01-27T08:50:45.162Z,65.40
2023-01-27T08:53:13.602Z,63.38
2023-01-27T08:55:43.576Z,63.49
2023-01-27T08:58:11.966Z,64.32
2023-01-27T09:00:40.417Z,65.09
2023-01-27T09:03:08.736Z,65.13
2023-01-27T09:05:38.116Z,65.03
2023-01-27T09:08:06.878Z,64.88
2023-01-27T09:10:39.257Z,64.73
2023-01-27T09:13:09.267Z,64.04
2023-01-27T09:15:38.258Z,64.11
2023-01-27T09:18:07.285Z,64.51
2023-01-27T09:20:37.294Z,64.97
2023-01-27T09:23:05.895Z,65.08
2023-01-27T09:25:34.249Z,65.03
2023-01-27T09:28:02.618Z,65.93
2023-01-27T09:30:32.431Z,65.84
2023-01-27T09:33:01.741Z,65.18
2023-01-27T09:35:37.821Z,65.69
2023-01-27T09:38:07.394Z,65.53
2023-01-27T09:40:48.904Z,66.27
2023-01-27T09:43:39.542Z,65.57
2023-01-27T09:46:24.990Z,65.62
2023-01-27T09:49:15.725Z,66.37
2023-01-27T09:51:59.194Z,66.30
2023-01-27T09:54:54.428Z,66.71
2023-01-27T09:57:35.401Z,66.98
2023-01-27T10:00:23.457Z,66.81
2023-01-27T10:03:18.148Z,65.92
2023-01-27T10:06:24.894Z,66.60
2023-01-27T10:09:24.843Z,66.30
2023-01-27T10:12:00.999Z,66.17
2023-01-27T10:14:40.882Z,65.77
2023-01-27T10:17:22.124Z,65.10
2023-01-27T10:20:08.875Z,65.42
2023-01-27T10:22:48.248Z,65.67
2023-01-27T10:25:26.713Z,65.99
2023-01-27T10:27:58.902Z,66.44
2023-01-27T10:30:35.178Z,65.75
2023-01-27T10:33:17.766Z,66.10
2023-01-27T10:35:53.765Z,67.17
2023-01-27T10:38:35.318Z,67.25
2023-01-27T10:41:12.368Z,67.07
2023-01-27T10:43:52.829Z,67.18
2023-01-27T10:46:32.678Z,67.60
2023-01-27T10:49:09.097Z,67.76
2023-01-27T10:51:43.392Z,67.52
2023-01-27T10:54:17.668Z,67.83
2023-01-27T10:56:49.529Z,68.01
2023-01-27T10:59:24.963Z,67.78
2023-01-27T11:01:57.692Z,67.33
2023-01-27T11:04:34.625Z,67.07
2023-01-27T11:07:05.562Z,67.41
2023-01-27T11:09:37.344Z,67.04
2023-01-27T11:12:11.097Z,66.79
2023-01-27T11:14:47.007Z,66.05
2023-01-27T11:17:21.542Z,66.42
2023-01-27T11:20:00.993Z,66.24
2023-01-27T11:22:38.494Z,66.33
2023-01-27T11:25:18.084Z,66.08
2023-01-27T11:28:01.619Z,65.86
2023-01-27T11:30:36.916Z,65.70
2023-01-27T11:33:13.110Z,66.43
2023-01-27T11:35:41.552Z,66.26
2023-01-27T11:38:17.904Z,66.15
2023-01-27T11:40:50.149Z,66.17
2023-01-27T11:43:21.467Z,66.36
2023-01-27T11:45:51.602Z,66.39
2023-01-27T11:48:23.419Z,66.07
2023-01-27T11:50:52.318Z,66.44
2023-01-27T11:53:27.854Z,66.62
2023-01-27T11:56:00.729Z,66.36
2023-01-27T11:58:34.033Z,66.04
2023-01-27T12:01:05.622Z,66.66
2023-01-27T12:03:49.995Z,66.96
2023-01-27T12:06:27.915Z,66.89
2023-01-27T12:08:57.715Z,66.41
2023-01-27T12:11:27.935Z,66.71
2023-01-27T12:13:59.101Z,67.05
2023-01-27T12:16:43.799Z,66.29
2023-01-27T12:19:25.340Z,66.47
2023-01-27T12:21:58.164Z,66.45
2023-01-27T12:24:32.095Z,66.08
2023-01-27T12:27:01.949Z,66.75
2023-01-27T12:29:42.898Z,66.56
2023-01-27T12:32:18.078Z,66.30
2023-01-27T12:34:50.573Z,66.54
2023-01-27T12:37:23.849Z,67.25
2023-01-27T12:40:00.600Z,67.16
2023-01-27T12:42:40.541Z,66.91
2023-01-27T12:45:35.202Z,67.13
2023-01-27T12:48:17.952Z,67.07
2023-01-27T12:50:56.859Z,66.79
2023-01-27T12:53:27.934Z,66.23
2023-01-27T12:56:03.166Z,66.71
2023-01-27T12:58:37.710Z,66.59
2023-01-27T13:01:09.329Z,67.14
2023-01-27T13:03:43.573Z,66.88
2023-01-27T13:06:17.496Z,67.30
2023-01-27T13:08:46.541Z,66.70
2023-01-27T13:11:34.597Z,66.79
2023-01-27T13:14:03.060Z,66.84
2023-01-27T13:16:32.368Z,66.82
2023-01-27T13:19:02.535Z,66.42
2023-01-27T13:21:36.722Z,66.56
2023-01-27T13:24:11.907Z,66.07
2023-01-27T13:26:43.137Z,66.83
2023-01-27T13:29:17.281Z,67.42
2023-01-27T13:31:52.151Z,67.55
2023-01-27T13:34:29.920Z,67.26
2023-01-27T13:37:03.766Z,67.10
2023-01-27T13:39:49.387Z,67.29
2023-01-27T13:42:24.992Z,66.40
2023-01-27T13:45:00.591Z,67.04
2023-01-27T13:47:35.310Z,67.13
2023-01-27T13:50:11.093Z,67.36
2023-01-27T13:52:39.720Z,67.25
2023-01-27T13:55:13.700Z,67.01
2023-01-27T13:57:59.238Z,66.84
2023-01-27T14:00:37.288Z,67.23
2023-01-27T14:03:38.296Z,67.38
2023-01-27T14:06:19.764Z,66.79
2023-01-27T14:09:03.543Z,67.23
2023-01-27T14:11:39.922Z,66.48
2023-01-27T14:14:23.404Z,66.82
2023-01-27T14:17:07.707Z,67.14
2023-01-27T14:19:51.254Z,67.12
2023-01-27T14:22:28.858Z,67.31
2023-01-27T14:25:02.756Z,67.36
2023-01-27T14:27:36.849Z,66.87
2023-01-27T14:30:16.376Z,66.86
2023-01-27T14:32:52.140Z,66.41
2023-01-27T14:35:30.343Z,66.06
2023-01-27T14:38:10.222Z,66.76
2023-01-27T14:40:51.103Z,67.25
2023-01-27T14:43:29.399Z,66.13
2023-01-27T14:46:06.486Z,66.79
2023-01-27T14:48:51.957Z,66.89
2023-01-27T14:51:31.539Z,66.94
2023-01-27T14:54:20.954Z,67.23
2023-01-27T14:57:06.035Z,66.73
2023-01-27T14:59:45.980Z,66.93
2023-01-27T15:02:31.181Z,66.75
2023-01-27T15:05:09.778Z,67.30
2023-01-27T15:07:45.530Z,67.25
2023-01-27T15:10:24.034Z,67.16
2023-01-27T15:13:31.881Z,67.10
2023-01-27T15:16:35.316Z,66.89
2023-01-27T15:19:36.074Z,67.56
2023-01-27T15:22:20.482Z,67.55
2023-01-27T15:25:07.902Z,67.36
2023-01-27T15:27:36.416Z,67.73
2023-01-27T15:30:09.674Z,67.74
2023-01-27T15:32:39.120Z,67.80
2023-01-27T15:35:35.135Z,67.34
2023-01-27T15:38:20.290Z,67.70
2023-01-27T15:41:04.945Z,68.52
2023-01-27T15:43:34.057Z,68.46
2023-01-27T15:46:23.842Z,68.58
2023-01-27T15:48:52.433Z,68.51
2023-01-27T15:51:23.127Z,69.01
2023-01-27T15:53:56.400Z,68.39
2023-01-27T15:56:48.869Z,68.48
2023-01-27T15:59:22.446Z,68.90
2023-01-27T16:02:01.178Z,68.49
2023-01-27T16:04:32.184Z,68.66
2023-01-27T16:07:05.863Z,68.82
2023-01-27T16:09:41.052Z,69.25
2023-01-27T16:12:32.195Z,69.28
2023-01-27T16:15:23.953Z,68.94
2023-01-27T16:18:01.448Z,68.12
2023-01-27T16:20:32.003Z,69.24
2023-01-27T16:23:07.070Z,69.46
2023-01-27T16:25:43.053Z,69.52
2023-01-27T16:28:19.311Z,69.76
2023-01-27T16:30:56.770Z,69.54
2023-01-27T16:33:29.627Z,69.43
2023-01-27T16:36:06.391Z,70.05
2023-01-27T16:38:40.223Z,69.54
2023-01-27T16:41:19.406Z,68.99
2023-01-27T16:43:52.754Z,70.12
2023-01-27T16:46:29.214Z,70.34
2023-01-27T16:48:57.784Z,70.48
2023-01-27T16:51:28.626Z,70.69
2023-01-27T16:54:00.446Z,69.77
2023-01-27T16:56:30.575Z,69.41
2023-01-27T16:59:05.523Z,70.47
2023-01-27T17:01:41.859Z,70.20
2023-01-27T17:04:20.176Z,70.17
2023-01-27T17:06:50.175Z,70.71
2023-01-27T17:09:25.809Z,70.33
2023-01-27T17:11:55.797Z,71.19
2023-01-27T17:14:32.100Z,69.82
2023-01-27T17:17:02.373Z,69.11
2023-01-27T17:19:34.244Z,70.82
2023-01-27T17:22:04.532Z,70.82
2023-01-27T17:24:37.484Z,70.13
2023-01-27T17:27:10.149Z,70.88
2023-01-27T17:29:40.533Z,70.17
2023-01-27T17:32:21.737Z,70.81
2023-01-27T17:34:52.058Z,71.41
2023-01-27T17:37:22.911Z,70.69
2023-01-27T17:39:56.902Z,70.91
2023-01-27T17:42:27.932Z,70.77
2023-01-27T17:44:57.149Z,71.20
2023-01-27T17:47:25.595Z,71.24
2023-01-27T17:49:54.370Z,71.45
2023-01-27T17:52:27.708Z,71.29
2023-01-27T17:55:06.171Z,71.27
2023-01-27T17:57:36.293Z,71.43
2023-01-27T18:00:09.897Z,71.24
2023-01-27T18:02:43.734Z,72.10
2023-01-27T18:05:19.926Z,72.04
2023-01-27T18:07:48.861Z,71.91
2023-01-27T18:10:27.157Z,71.95
2023-01-27T18:12:55.729Z,72.55
2023-01-27T18:15:43.976Z,71.42
2023-01-27T18:18:25.100Z,71.55
2023-01-27T18:21:06.325Z,72.09
2023-01-27T18:23:37.500Z,71.55
2023-01-27T18:26:15.418Z,72.01
2023-01-27T18:28:45.945Z,71.89
2023-01-27T18:31:18.650Z,71.66
2023-01-27T18:33:48.292Z,72.06
2023-01-27T18:36:24.336Z,72.18
2023-01-27T18:38:53.407Z,72.16
2023-01-27T18:41:27.651Z,71.39
2023-01-27T18:43:56.652Z,72.32
2023-01-27T18:46:27.140Z,72.53
2023-01-27T18:48:59.734Z,72.91
2023-01-27T18:51:28.371Z,72.31
2023-01-27T18:53:57.152Z,72.17
2023-01-27T18:56:27.236Z,71.60
2023-01-27T18:58:55.676Z,72.05
2023-01-27T19:01:26.000Z,71.91
2023-01-27T19:03:57.546Z,72.04
2023-01-27T19:06:27.661Z,72.62
2023-01-27T19:08:56.731Z,72.52
2023-01-27T19:11:28.899Z,71.77
2023-01-27T19:13:57.382Z,72.18
2023-01-27T19:16:28.146Z,72.47
2023-01-27T19:18:56.931Z,72.37
2023-01-27T19:21:25.171Z,72.48
2023-01-27T19:23:53.949Z,72.49
2023-01-27T19:26:24.566Z,72.47
2023-01-27T19:28:57.352Z,72.23
2023-01-27T19:31:26.965Z,72.24
2023-01-27T19:33:56.859Z,72.15
2023-01-27T19:36:30.884Z,72.40
2023-01-27T19:39:03.212Z,71.71
2023-01-27T19:41:32.015Z,71.83
2023-01-27T19:44:02.710Z,71.85
2023-01-27T19:46:32.585Z,72.11
2023-01-27T19:49:01.184Z,71.73
2023-01-27T19:51:29.847Z,71.85
2023-01-27T19:53:59.092Z,70.86
2023-01-27T19:56:33.036Z,71.50
2023-01-27T19:59:02.777Z,71.70
2023-01-27T20:01:31.299Z,71.67
2023-01-27T20:03:59.883Z,71.44
2023-01-27T20:06:30.996Z,71.86
2023-01-27T20:09:04.088Z,71.34
2023-01-27T20:11:37.393Z,71.36
2023-01-27T20:14:09.765Z,71.22
2023-01-27T20:16:39.493Z,70.88
2023-01-27T20:19:09.614Z,70.41
2023-01-27T20:21:39.107Z,69.64
2023-01-27T20:24:10.078Z,70.87
2023-01-27T20:26:40.284Z,71.71
2023-01-27T20:29:11.683Z,71.27
2023-01-27T20:31:41.556Z,71.62
2023-01-27T20:34:11.458Z,71.19
2023-01-27T20:36:41.330Z,70.52
2023-01-27T20:39:11.116Z,71.71
2023-01-27T20:41:40.970Z,71.07
2023-01-27T20:44:14.684Z,70.29
2023-01-27T20:46:44.485Z,70.45
2023-01-27T20:49:14.057Z,70.67
2023-01-27T20:51:43.748Z,71.61
2023-01-27T20:54:14.615Z,71.25
2023-01-27T20:56:44.104Z,71.62
2023-01-27T20:59:15.780Z,72.50
2023-01-27T21:01:46.916Z,72.22
2023-01-27T21:04:16.665Z,71.92
2023-01-27T21:06:46.724Z,71.38
2023-01-27T21:09:17.342Z,70.97
2023-01-27T21:11:47.504Z,70.81
2023-01-27T21:14:19.810Z,71.31
2023-01-27T21:16:49.743Z,70.98
2023-01-27T21:19:19.613Z,71.52
2023-01-27T21:21:49.710Z,71.02
2023-01-27T21:24:19.636Z,71.70
2023-01-27T21:26:52.130Z,72.97
2023-01-27T21:29:25.380Z,73.71
2023-01-27T21:31:54.414Z,73.41
2023-01-27T21:34:24.269Z,72.84
2023-01-27T21:36:56.043Z,71.90
2023-01-27T21:39:25.452Z,71.00
2023-01-27T21:42:12.597Z,71.50
2023-01-27T21:45:13.710Z,71.41
2023-01-27T21:47:42.548Z,72.69
2023-01-27T21:50:15.122Z,72.53
2023-01-27T21:52:46.835Z,72.75
2023-01-27T21:55:18.444Z,73.37
2023-01-27T21:57:48.609Z,73.50
2023-01-27T22:00:21.581Z,73.62
2023-01-27T22:02:55.030Z,72.52
2023-01-27T22:05:23.669Z,72.93
2023-01-27T22:07:52.350Z,72.44
2023-01-27T22:10:22.695Z,73.09
2023-01-27T22:12:52.436Z,72.68
2023-01-27T22:15:22.455Z,73.28
2023-01-27T22:17:50.884Z,72.87
2023-01-27T22:20:20.065Z,74.19
2023-01-27T22:22:48.408Z,74.51
2023-01-27T22:25:17.863Z,73.50
2023-01-27T22:27:46.492Z,73.72
2023-01-27T22:30:16.299Z,73.26
2023-01-27T22:32:51.122Z,74.39
2023-01-27T22:35:20.004Z,74.13
2023-01-27T22:37:49.266Z,72.87
2023-01-27T22:40:18.396Z,73.50
2023-01-27T22:42:46.689Z,72.28
2023-01-27T22:45:15.455Z,72.49
2023-01-27T22:47:45.488Z,72.65
2023-01-27T22:50:14.008Z,72.74
2023-01-27T22:52:42.445Z,73.22
2023-01-27T22:55:13.871Z,73.83
2023-01-27T22:57:42.333Z,74.20
2023-01-27T23:00:11.972Z,74.10
2023-01-27T23:02:40.295Z,73.07
2023-01-27T23:05:10.655Z,73.07
2023-01-27T23:07:39.049Z,74.14
2023-01-27T23:10:08.451Z,74.19
2023-01-27T23:12:36.797Z,74.13
2023-01-27T23:15:05.866Z,72.63
2023-01-27T23:17:34.272Z,73.62
2023-01-27T23:20:02.733Z,73.03
2023-01-27T23:22:32.496Z,73.16
2023-01-27T23:25:00.794Z,73.64
2023-01-27T23:27:29.688Z,72.85
2023-01-27T23:29:58.086Z,73.23
2023-01-27T23:32:26.438Z,72.71
2023-01-27T23:34:54.825Z,73.83
2023-01-27T23:37:23.123Z,73.88
2023-01-27T23:39:52.924Z,73.43
2023-01-27T23:42:21.737Z,74.01
2023-01-27T23:44:50.179Z,73.90
2023-01-27T23:47:18.733Z,72.81
2023-01-27T23:49:47.415Z,73.41
2023-01-27T23:52:15.790Z,72.99
2023-01-27T23:54:44.105Z,73.65
2023-01-27T23:57:13.822Z,74.17
2023-01-27T23:59:42.560Z,73.86
